Time;durP1;ratioP1;P1;durP2;ratioP2;P2;SDS_P1;SDS_P2;PMS_P1;PMS_P2;Temp;Humidity;BMP_temperature;BMP_pressure;BME280_temperature;BME280_humidity;BME280_pressure;Samples;Min_cycle;Max_cycle;Signal;HPM_P1;HPM_P2
2021/07/07 00:01:58;;;;;;;7.85;3.20;;;;;;;17.85;90.73;96184.34;5014422;28;20049;-75
2021/07/07 00:04:25;;;;;;;6.55;3.10;;;;;;;17.95;91.03;96184.50;5014099;28;20046;-75
2021/07/07 00:06:51;;;;;;;6.65;2.53;;;;;;;18.03;90.61;96184.66;5014433;28;20073;-75
2021/07/07 00:09:19;;;;;;;8.73;4.10;;;;;;;18.06;90.47;96189.41;5014085;28;20053;-75
2021/07/07 00:11:46;;;;;;;8.00;4.03;;;;;;;18.09;90.50;96192.22;5014624;28;20060;-75
2021/07/07 00:14:12;;;;;;;7.35;3.90;;;;;;;18.14;90.48;96182.84;5014006;28;20046;-75
2021/07/07 00:16:39;;;;;;;8.05;3.70;;;;;;;18.15;90.18;96176.16;5014241;28;20046;-75
2021/07/07 00:19:07;;;;;;;6.88;3.42;;;;;;;18.17;89.94;96174.63;5013850;28;20386;-74
2021/07/07 00:21:33;;;;;;;8.35;4.30;;;;;;;18.22;89.91;96170.78;5014207;28;20056;-75
2021/07/07 00:24:00;;;;;;;10.40;4.35;;;;;;;18.28;89.87;96174.78;5014199;28;20046;-75
2021/07/07 00:26:26;;;;;;;8.95;4.45;;;;;;;18.29;89.55;96170.84;5012348;28;20045;-75
2021/07/07 00:28:53;;;;;;;7.35;3.80;;;;;;;18.40;88.94;96176.53;5014256;28;20045;-75
2021/07/07 00:31:20;;;;;;;8.00;3.92;;;;;;;18.42;88.29;96172.22;5013496;28;20045;-75
2021/07/07 00:33:46;;;;;;;10.18;4.30;;;;;;;18.42;88.06;96163.94;5013846;28;20054;-75
2021/07/07 00:36:14;;;;;;;7.80;3.67;;;;;;;18.42;88.37;96169.44;5013319;28;20064;-75
2021/07/07 00:38:41;;;;;;;10.38;4.20;;;;;;;18.45;87.74;96168.72;5013853;28;20045;-75
2021/07/07 00:41:07;;;;;;;8.52;4.10;;;;;;;18.45;87.91;96159.66;5013465;28;20050;-74
2021/07/07 00:43:34;;;;;;;7.72;4.20;;;;;;;18.42;87.86;96141.09;5013909;28;20046;-75
2021/07/07 00:46:02;;;;;;;9.30;3.88;;;;;;;18.46;88.00;96133.66;5013548;28;20070;-75
2021/07/07 00:48:29;;;;;;;6.70;3.88;;;;;;;18.48;87.99;96126.63;5013354;28;20053;-75
2021/07/07 00:50:56;;;;;;;8.30;4.00;;;;;;;18.49;88.27;96142.00;5013635;28;20045;-75
2021/07/07 00:53:24;;;;;;;9.48;3.97;;;;;;;18.51;88.19;96145.16;5013272;28;20042;-75
2021/07/07 00:55:51;;;;;;;7.05;3.47;;;;;;;18.56;88.09;96151.53;5013567;28;20054;-75
2021/07/07 00:58:21;;;;;;;7.30;3.65;;;;;;;18.58;87.88;96149.16;5013218;28;20397;-75
2021/07/07 01:00:47;;;;;;;9.57;3.67;;;;;;;18.60;87.83;96141.34;5013446;28;20061;-74
2021/07/07 01:03:14;;;;;;;7.15;3.25;;;;;;;18.62;87.68;96150.00;5010979;28;20057;-75
2021/07/07 01:05:40;;;;;;;8.63;3.65;;;;;;;18.63;87.06;96170.91;5013272;28;20057;-75
2021/07/07 01:08:07;;;;;;;7.78;3.35;;;;;;;18.58;86.06;96176.75;5012999;28;20057;-74
2021/07/07 01:10:35;;;;;;;5.75;2.95;;;;;;;18.54;86.70;96181.44;5013225;28;20485;-74
2021/07/07 01:13:01;;;;;;;6.60;3.13;;;;;;;18.48;86.68;96178.22;5013404;28;20054;-75
2021/07/07 01:15:28;;;;;;;6.93;3.15;;;;;;;18.46;87.04;96180.53;5012883;28;20041;-75
2021/07/07 01:17:54;;;;;;;8.25;2.67;;;;;;;18.47;87.28;96171.09;5013181;28;20042;-76
2021/07/07 01:20:23;;;;;;;5.72;2.88;;;;;;;18.50;87.23;96173.91;5012775;28;20049;-75
2021/07/07 01:22:51;;;;;;;9.02;3.55;;;;;;;18.47;87.32;96169.13;5012939;28;20057;-75
2021/07/07 01:25:19;;;;;;;8.05;3.15;;;;;;;18.44;87.03;96167.13;5012744;28;20048;-75
2021/07/07 01:27:47;;;;;;;8.35;3.15;;;;;;;18.45;87.46;96157.69;5013136;28;20042;-75
2021/07/07 01:30:17;;;;;;;7.50;3.35;;;;;;;18.49;87.52;96147.50;5012458;28;20042;-75
2021/07/07 01:32:44;;;;;;;7.85;3.47;;;;;;;18.51;87.71;96158.94;5012835;28;20042;-75
2021/07/07 01:35:12;;;;;;;6.55;3.00;;;;;;;18.48;87.57;96145.94;5012291;28;20049;-75
2021/07/07 01:37:40;;;;;;;7.07;3.28;;;;;;;18.51;87.79;96139.66;5012203;28;20053;-75
2021/07/07 01:40:10;;;;;;;7.13;2.90;;;;;;;18.52;87.85;96141.22;5012576;28;20046;-76
2021/07/07 01:42:36;;;;;;;5.65;2.72;;;;;;;18.57;87.82;96131.03;5012696;28;20056;-75
2021/07/07 01:45:05;;;;;;;6.82;3.30;;;;;;;18.56;87.70;96130.25;5012160;28;20153;-74
2021/07/07 01:47:32;;;;;;;6.28;3.10;;;;;;;18.62;87.05;96139.78;5012601;28;20046;-75
2021/07/07 01:49:59;;;;;;;5.80;2.72;;;;;;;18.59;86.18;96139.75;5012556;28;20413;-76
2021/07/07 01:55:48;;;;;;;9.32;3.70;;;;;;;18.59;86.87;96150.78;5011312;28;20057;-74
2021/07/07 01:58:15;;;;;;;6.85;3.33;;;;;;;18.59;86.95;96151.56;5010912;28;20053;-75
2021/07/07 02:00:41;;;;;;;5.22;2.80;;;;;;;18.62;86.56;96163.81;5012364;28;20049;-75
2021/07/07 02:03:08;;;;;;;5.53;2.85;;;;;;;18.63;86.53;96157.13;5011782;28;20042;-75
2021/07/07 02:05:37;;;;;;;6.38;2.45;;;;;;;18.61;85.90;96170.50;5012296;28;20046;-75
2021/07/07 02:08:06;;;;;;;5.05;2.75;;;;;;;18.56;86.44;96168.84;5011920;28;20053;-75
2021/07/07 02:10:33;;;;;;;7.30;2.53;;;;;;;18.60;86.44;96169.69;5012281;28;20048;-75
2021/07/07 02:13:01;;;;;;;7.10;2.75;;;;;;;18.60;86.52;96168.91;5012214;28;20060;-75
2021/07/07 02:15:30;;;;;;;5.78;2.50;;;;;;;18.58;86.88;96160.19;5011900;28;20042;-75
2021/07/07 02:17:58;;;;;;;8.93;3.28;;;;;;;18.60;86.75;96144.09;5012114;28;20049;-75
2021/07/07 02:20:25;;;;;;;9.02;3.22;;;;;;;18.62;87.12;96150.00;5011657;28;20050;-75
2021/07/07 02:22:52;;;;;;;5.95;2.88;;;;;;;18.66;87.07;96153.63;5012015;28;20153;-75
2021/07/07 02:25:21;;;;;;;5.10;2.72;;;;;;;18.65;87.06;96157.56;5011555;28;20048;-75
2021/07/07 02:27:48;;;;;;;6.78;3.42;;;;;;;18.63;87.15;96157.13;5011986;28;20045;-75
2021/07/07 02:30:20;;;;;;;9.50;3.20;;;;;;;18.64;87.18;96158.72;5011377;28;20050;-75
2021/07/07 02:32:46;;;;;;;7.68;2.92;;;;;;;18.66;87.15;96162.69;5012001;28;20057;-75
2021/07/07 02:35:15;;;;;;;7.05;3.53;;;;;;;18.70;87.01;96169.06;5011389;28;20049;-75
2021/07/07 02:37:43;;;;;;;6.78;3.30;;;;;;;18.72;86.84;96168.69;5011552;28;20466;-75
2021/07/07 02:40:11;;;;;;;8.13;3.38;;;;;;;18.73;86.80;96162.00;5011342;28;20045;-75
2021/07/07 02:42:38;;;;;;;7.95;2.60;;;;;;;18.72;85.63;96157.66;5011732;28;20049;-75
2021/07/07 02:45:06;;;;;;;6.93;2.72;;;;;;;18.63;85.65;96146.88;5011176;28;20053;-75
2021/07/07 02:47:34;;;;;;;5.78;2.85;;;;;;;18.62;85.77;96153.56;5011547;28;20042;-75
2021/07/07 02:50:00;;;;;;;8.65;3.80;;;;;;;18.61;85.82;96143.72;5010766;28;20100;-75
2021/07/07 02:52:27;;;;;;;5.07;2.70;;;;;;;18.64;86.07;96145.72;5011511;28;20034;-75
2021/07/07 02:54:53;;;;;;;6.63;2.80;;;;;;;18.67;86.23;96152.44;5011529;28;20052;-76
2021/07/07 02:57:20;;;;;;;6.30;3.13;;;;;;;18.69;85.35;96161.19;5011176;28;20050;-75
2021/07/07 02:59:46;;;;;;;7.40;2.95;;;;;;;18.66;85.80;96150.88;5011261;28;20509;-75
2021/07/07 03:02:13;;;;;;;5.88;2.85;;;;;;;18.66;86.00;96156.38;5010636;28;20042;-75
2021/07/07 03:04:40;;;;;;;7.80;2.47;;;;;;;18.68;86.11;96156.81;5011480;28;20523;-75
2021/07/07 03:07:07;;;;;;;9.75;3.50;;;;;;;18.67;86.17;96157.97;5011020;28;20050;-75
2021/07/07 03:09:35;;;;;;;7.35;2.83;;;;;;;18.66;86.50;96161.91;5011555;28;20041;-75
2021/07/07 03:12:02;;;;;;;6.80;2.92;;;;;;;18.68;86.65;96182.44;5011037;28;20482;-74
2021/07/07 03:14:28;;;;;;;6.93;3.22;;;;;;;18.68;85.90;96178.88;5011316;28;20042;-75
2021/07/07 03:16:55;;;;;;;5.07;2.40;;;;;;;18.69;85.42;96192.31;5011245;28;20041;-74
2021/07/07 03:19:21;;;;;;;8.52;3.08;;;;;;;18.68;85.86;96192.66;5010629;28;20420;-75
2021/07/07 03:21:49;;;;;;;6.97;3.00;;;;;;;18.61;85.72;96200.84;5011303;28;20050;-75
2021/07/07 03:24:16;;;;;;;8.10;3.00;;;;;;;18.60;86.17;96196.50;5010857;28;20081;-75
2021/07/07 03:26:42;;;;;;;7.95;2.70;;;;;;;18.58;86.16;96193.28;5011130;28;20042;-75
2021/07/07 03:29:09;;;;;;;8.48;3.00;;;;;;;18.54;86.39;96190.50;5010595;28;20477;-75
2021/07/07 03:31:35;;;;;;;8.82;3.17;;;;;;;18.55;86.45;96188.53;5011158;28;20072;-75
2021/07/07 03:34:02;;;;;;;6.40;2.80;;;;;;;18.58;87.11;96187.78;5010690;28;20053;-76
2021/07/07 03:36:28;;;;;;;8.35;3.40;;;;;;;18.59;87.06;96176.41;5011294;28;20050;-75
2021/07/07 03:38:56;;;;;;;7.90;3.67;;;;;;;18.56;86.96;96174.38;5011049;28;20053;-75
2021/07/07 03:41:23;;;;;;;5.03;2.90;;;;;;;18.59;87.09;96170.09;5010816;28;20046;-74
2021/07/07 03:43:49;;;;;;;8.98;3.67;;;;;;;18.60;87.21;96168.91;5010867;28;20053;-74
2021/07/07 03:46:16;;;;;;;9.65;3.05;;;;;;;18.65;87.09;96160.31;5010531;28;20516;-75
2021/07/07 03:48:42;;;;;;;7.18;3.10;;;;;;;18.70;87.05;96176.56;5011092;28;20053;-74
2021/07/07 03:51:09;;;;;;;5.53;2.83;;;;;;;18.72;86.78;96166.72;5010697;28;20046;-74
2021/07/07 03:53:35;;;;;;;8.90;3.20;;;;;;;18.72;86.81;96177.75;5010972;28;20041;-76
2021/07/07 03:56:03;;;;;;;11.10;3.80;;;;;;;18.74;86.95;96183.72;5010460;28;20049;-74
2021/07/07 03:58:30;;;;;;;6.65;3.33;;;;;;;18.78;86.81;96197.53;4993545;28;20042;-75
2021/07/07 04:00:56;;;;;;;7.65;3.80;;;;;;;18.81;85.99;96210.59;5011871;28;20084;-75
2021/07/07 04:03:23;;;;;;;5.85;2.20;;;;;;;18.81;85.47;96213.34;5014225;28;20042;-75
2021/07/07 04:05:49;;;;;;;10.02;3.22;;;;;;;18.75;85.36;96214.84;5014440;28;20053;-76
2021/07/07 04:08:16;;;;;;;5.25;2.72;;;;;;;18.74;85.89;96213.22;5013996;28;20053;-74
2021/07/07 04:10:42;;;;;;;6.43;2.85;;;;;;;18.74;85.14;96218.75;5014598;28;20144;-75
2021/07/07 04:13:10;;;;;;;9.23;3.17;;;;;;;18.71;85.03;96214.00;5013837;28;20054;-75
2021/07/07 04:15:36;;;;;;;7.43;3.00;;;;;;;18.69;85.40;96227.38;5014263;28;20046;-75
2021/07/07 04:18:04;;;;;;;10.05;3.00;;;;;;;18.68;85.94;96231.28;5014181;28;20054;-75
2021/07/07 04:20:30;;;;;;;6.20;2.97;;;;;;;18.69;86.36;96224.63;5014264;28;20046;-75
2021/07/07 04:22:57;;;;;;;7.85;3.00;;;;;;;18.72;85.59;96237.66;5014127;28;20046;-75
2021/07/07 04:25:23;;;;;;;9.23;3.42;;;;;;;18.72;85.39;96234.88;5013576;28;20053;-75
2021/07/07 04:27:50;;;;;;;9.82;3.17;;;;;;;18.72;85.35;96243.16;5013934;28;20049;-75
2021/07/07 04:30:20;;;;;;;6.18;2.60;;;;;;;18.71;85.65;96244.34;5013422;28;20045;-74
2021/07/07 04:32:48;;;;;;;7.15;2.70;;;;;;;18.68;85.87;96250.59;5013882;28;20054;-75
2021/07/07 04:35:17;;;;;;;7.53;3.00;;;;;;;18.66;85.94;96261.19;5013303;28;20060;-75
2021/07/07 04:37:44;;;;;;;7.93;2.95;;;;;;;18.65;86.00;96262.34;5013915;28;20046;-75
2021/07/07 04:40:12;;;;;;;7.05;2.70;;;;;;;18.62;86.21;96271.38;5013195;28;20061;-75
2021/07/07 04:42:38;;;;;;;7.78;3.17;;;;;;;18.61;86.60;96275.28;5013662;28;20056;-75
2021/07/07 04:45:06;;;;;;;6.05;2.83;;;;;;;18.51;86.91;96274.75;5013419;28;20141;-74
2021/07/07 04:47:35;;;;;;;7.38;3.20;;;;;;;18.40;87.37;96289.56;5013748;28;20049;-75
2021/07/07 04:50:01;;;;;;;8.25;3.35;;;;;;;18.24;87.86;96289.69;5013663;28;20042;-75
2021/07/07 04:52:28;;;;;;;10.80;3.20;;;;;;;18.11;88.76;96293.78;5013243;28;20053;-76
2021/07/07 04:54:54;;;;;;;8.18;3.38;;;;;;;17.90;89.83;96289.50;5013621;28;20057;-75
2021/07/07 04:57:21;;;;;;;11.48;4.38;;;;;;;17.87;90.77;96293.00;5013032;28;20045;-74
2021/07/07 04:59:47;;;;;;;7.70;3.72;;;;;;;17.83;91.24;96286.63;5013496;28;20038;-74
2021/07/07 05:02:13;;;;;;;6.43;3.15;;;;;;;17.84;91.92;96288.22;5013202;28;20046;-74
2021/07/07 05:04:41;;;;;;;9.63;4.22;;;;;;;17.79;91.73;96284.97;5013175;28;20046;-75
2021/07/07 05:07:08;;;;;;;9.45;4.95;;;;;;;17.76;92.46;96282.97;5013002;28;20057;-74
2021/07/07 05:09:34;;;;;;;10.27;5.03;;;;;;;17.81;92.82;96277.16;5013109;28;20054;-74
2021/07/07 05:12:01;;;;;;;8.20;4.55;;;;;;;17.83;93.00;96266.56;5013070;28;20050;-75
2021/07/07 05:14:28;;;;;;;12.80;5.60;;;;;;;17.83;92.94;96261.06;5012626;28;20046;-74
2021/07/07 05:16:55;;;;;;;8.45;5.18;;;;;;;17.84;92.64;96260.69;5012952;28;20387;-76
2021/07/07 05:19:21;;;;;;;13.15;5.72;;;;;;;17.86;92.82;96263.09;5005050;28;20489;-74
2021/07/07 05:21:49;;;;;;;10.68;6.13;;;;;;;17.88;92.91;96261.53;5025715;28;20052;-75
2021/07/07 05:24:15;;;;;;;15.45;6.47;;;;;;;17.87;92.86;96262.72;5012304;28;20057;-74
2021/07/07 05:26:42;;;;;;;16.05;6.28;;;;;;;17.95;93.11;96260.84;5012618;28;20049;-75
2021/07/07 05:29:08;;;;;;;9.52;6.20;;;;;;;17.96;92.88;96263.25;5012449;28;20059;-74
2021/07/07 05:31:37;;;;;;;13.13;5.97;;;;;;;18.01;93.13;96270.44;5012675;28;20409;-75
2021/07/07 05:34:04;;;;;;;10.18;6.13;;;;;;;18.06;93.01;96278.38;5012478;28;20053;-74
2021/07/07 05:36:30;;;;;;;11.88;6.32;;;;;;;18.09;92.71;96282.34;5012866;28;20408;-75
2021/07/07 05:38:58;;;;;;;11.13;6.20;;;;;;;18.05;92.42;96287.00;5025061;28;20046;-75
2021/07/07 05:41:25;;;;;;;10.65;6.10;;;;;;;18.05;92.50;96289.75;5031782;28;20147;-75
2021/07/07 05:43:54;;;;;;;12.73;6.30;;;;;;;18.06;92.65;96291.34;5032291;28;20046;-75
2021/07/07 05:46:21;;;;;;;12.25;6.18;;;;;;;18.07;92.22;96301.22;5031596;28;20049;-75
2021/07/07 05:48:47;;;;;;;14.00;7.07;;;;;;;18.08;91.92;96302.81;5032015;28;20058;-75
2021/07/07 05:51:16;;;;;;;12.70;5.95;;;;;;;18.06;92.19;96305.13;5031787;28;20041;-75
2021/07/07 05:53:42;;;;;;;11.60;5.78;;;;;;;18.05;92.25;96309.84;5031625;28;20052;-75
2021/07/07 05:56:10;;;;;;;11.43;6.13;;;;;;;18.00;92.35;96313.69;5019586;28;20440;-77
2021/07/07 05:58:36;;;;;;;11.18;6.35;;;;;;;18.00;92.49;96308.19;5012250;28;20050;-78
2021/07/07 06:01:03;;;;;;;11.77;5.25;;;;;;;17.99;92.66;96306.59;5011830;28;20061;-76
2021/07/07 06:03:30;;;;;;;10.48;4.90;;;;;;;18.02;92.72;96305.09;5012109;28;20041;-77
2021/07/07 06:05:56;;;;;;;7.97;4.88;;;;;;;18.02;92.80;96315.31;5012097;28;20627;-77
2021/07/07 06:08:23;;;;;;;10.77;4.38;;;;;;;18.00;92.63;96318.41;5011557;28;20052;-77
2021/07/07 06:10:49;;;;;;;6.93;3.38;;;;;;;17.98;92.03;96316.03;5012445;28;20053;-77
2021/07/07 06:13:17;;;;;;;8.20;3.92;;;;;;;17.96;92.22;96323.88;5011505;28;20052;-78
2021/07/07 06:15:44;;;;;;;9.02;4.25;;;;;;;17.98;92.60;96316.03;5012058;28;20497;-77
2021/07/07 06:18:11;;;;;;;10.93;4.65;;;;;;;18.05;92.39;96320.88;5011365;28;20050;-78
2021/07/07 06:20:38;;;;;;;7.30;3.72;;;;;;;18.02;92.11;96316.09;5012082;28;20100;-75
2021/07/07 06:23:04;;;;;;;7.63;4.00;;;;;;;18.05;92.25;96317.31;5011594;28;20046;-75
2021/07/07 06:25:31;;;;;;;8.18;3.80;;;;;;;18.06;92.15;96316.94;5011959;28;20049;-77
2021/07/07 06:28:00;;;;;;;9.52;4.15;;;;;;;18.12;92.25;96325.72;5011793;28;20046;-76
2021/07/07 06:30:29;;;;;;;8.15;3.60;;;;;;;18.06;91.73;96332.69;5011345;28;20042;-77
2021/07/07 06:32:57;;;;;;;6.75;3.75;;;;;;;18.06;91.92;96333.47;5011610;28;20046;-77
2021/07/07 06:35:24;;;;;;;7.85;3.72;;;;;;;18.04;91.61;96341.31;5011302;28;20052;-77
2021/07/07 06:37:51;;;;;;;6.18;3.47;;;;;;;18.08;91.48;96341.41;5011464;28;20065;-77
2021/07/07 06:40:20;;;;;;;8.93;3.80;;;;;;;18.02;91.28;96351.13;5011354;28;20045;-78
2021/07/07 06:42:47;;;;;;;7.57;3.78;;;;;;;18.02;91.14;96348.38;5011247;28;20437;-77
2021/07/07 06:45:15;;;;;;;8.27;3.80;;;;;;;18.04;91.40;96343.28;5013616;28;20049;-76
2021/07/07 06:47:44;;;;;;;5.78;3.78;;;;;;;18.07;91.19;96343.34;5030843;28;20069;-76
2021/07/07 06:50:14;;;;;;;6.40;3.70;;;;;;;18.09;91.36;96342.97;5030925;28;20041;-78
2021/07/07 06:52:41;;;;;;;7.72;4.00;;;;;;;18.17;91.20;96339.19;5031087;28;20500;-77
2021/07/07 06:55:09;;;;;;;7.93;4.25;;;;;;;18.17;91.48;96334.47;5029890;28;20046;-76
2021/07/07 06:57:36;;;;;;;9.32;4.50;;;;;;;18.19;91.56;96331.34;5011078;28;20497;-75
2021/07/07 07:00:05;;;;;;;7.75;3.92;;;;;;;18.25;91.44;96325.16;5010963;28;20050;-75
2021/07/07 07:02:32;;;;;;;16.77;6.28;;;;;;;18.35;90.91;96334.75;5010830;28;20046;-77
2021/07/07 07:05:00;;;;;;;8.93;3.83;;;;;;;18.41;90.67;96338.78;5031079;28;20103;-77
2021/07/07 07:07:27;;;;;;;6.75;3.75;;;;;;;18.40;90.78;96341.94;5030420;28;20052;-77
2021/07/07 07:09:54;;;;;;;7.28;3.65;;;;;;;18.44;90.53;96348.31;5030788;28;20049;-77
2021/07/07 07:12:21;;;;;;;8.10;4.15;;;;;;;18.44;90.87;96340.81;5030185;28;20053;-75
2021/07/07 07:14:50;;;;;;;7.85;4.10;;;;;;;18.47;90.79;96342.84;5031121;28;20050;-77
2021/07/07 07:17:17;;;;;;;6.78;3.67;;;;;;;18.50;90.78;96339.34;5030164;28;20432;-76
2021/07/07 07:19:44;;;;;;;16.88;4.50;;;;;;;18.54;90.67;96335.88;5030663;28;20045;-76
2021/07/07 07:22:12;;;;;;;10.10;4.60;;;;;;;18.58;90.78;96340.25;5030354;28;20057;-78
2021/07/07 07:24:38;;;;;;;8.70;3.78;;;;;;;18.64;89.80;96347.06;5030492;28;20045;-77
2021/07/07 07:27:05;;;;;;;6.22;3.55;;;;;;;18.65;89.22;96351.41;5013108;28;20057;-75
2021/07/07 07:29:32;;;;;;;5.55;3.28;;;;;;;18.64;89.52;96360.06;5010802;28;20053;-75
2021/07/07 07:31:58;;;;;;;7.25;3.80;;;;;;;18.62;89.78;96359.63;5010905;28;20567;-76
2021/07/07 07:34:25;;;;;;;6.68;4.35;;;;;;;18.59;89.58;96365.88;5010571;28;20042;-78
2021/07/07 07:36:58;;;;;;;10.65;4.70;;;;;;;18.62;89.75;96359.63;5013401;28;20417;-76
2021/07/07 07:39:27;;;;;;;10.50;5.70;;;;;;;18.66;89.32;96365.97;5014131;28;20580;-79
2021/07/07 07:41:53;;;;;;;9.95;4.68;;;;;;;18.65;89.63;96375.44;5014911;28;20069;-77
2021/07/07 07:44:20;;;;;;;16.55;5.47;;;;;;;18.66;89.53;96371.50;5013947;28;20054;-76
2021/07/07 07:46:47;;;;;;;8.73;5.63;;;;;;;18.64;89.44;96369.13;5014763;28;20058;-76
2021/07/07 07:49:14;;;;;;;9.98;5.65;;;;;;;18.64;89.68;96368.34;5013907;28;20054;-78
2021/07/07 07:51:41;;;;;;;7.43;4.63;;;;;;;18.65;89.44;96380.94;5014713;28;20417;-77
2021/07/07 07:54:07;;;;;;;8.85;5.38;;;;;;;18.65;89.04;96386.47;5013909;28;20046;-77
2021/07/07 07:56:35;;;;;;;8.20;4.60;;;;;;;18.62;88.15;96389.94;5014519;28;20052;-77
2021/07/07 07:59:02;;;;;;;6.82;4.43;;;;;;;18.60;88.01;96395.06;5013773;28;20049;-76
2021/07/07 08:01:28;;;;;;;9.10;4.70;;;;;;;18.57;86.79;96390.25;5014726;28;20050;-77
2021/07/07 08:03:55;;;;;;;8.82;5.00;;;;;;;18.52;87.11;96400.44;5014158;28;20409;-78
2021/07/07 08:06:21;;;;;;;13.63;5.47;;;;;;;18.51;87.66;96404.34;5014013;28;20050;-76
2021/07/07 08:08:48;;;;;;;13.25;6.00;;;;;;;18.48;87.25;96391.31;5013999;28;20057;-76
2021/07/07 08:11:15;;;;;;;9.80;5.78;;;;;;;18.49;87.32;96395.66;5013987;28;20053;-75
2021/07/07 08:13:43;;;;;;;9.60;5.55;;;;;;;18.50;87.63;96391.75;5014068;28;20042;-76
2021/07/07 08:16:09;;;;;;;12.65;7.40;;;;;;;18.53;87.66;96395.69;5013771;28;20464;-77
2021/07/07 08:18:36;;;;;;;12.73;7.45;;;;;;;18.58;88.13;96402.88;5013778;28;20048;-76
2021/07/07 08:21:02;;;;;;;10.30;6.82;;;;;;;18.59;87.70;96402.53;5013720;28;20046;-75
2021/07/07 08:23:29;;;;;;;15.23;7.80;;;;;;;18.57;87.77;96413.13;5013796;28;20072;-75
2021/07/07 08:25:55;;;;;;;16.25;8.50;;;;;;;18.59;88.03;96415.53;5014328;28;20046;-75
2021/07/07 08:28:22;;;;;;;15.30;7.18;;;;;;;18.61;88.15;96419.50;5013529;28;20057;-76
2021/07/07 08:30:50;;;;;;;12.63;6.72;;;;;;;18.64;87.39;96417.97;5013791;28;20515;-78
2021/07/07 08:33:17;;;;;;;8.32;5.70;;;;;;;18.58;87.17;96424.94;5013004;28;20049;-75
2021/07/07 08:35:44;;;;;;;8.45;5.38;;;;;;;18.58;87.16;96436.75;5013851;28;20046;-76
2021/07/07 08:38:11;;;;;;;10.13;5.85;;;;;;;18.55;87.16;96437.50;5012842;28;20050;-75
2021/07/07 08:40:38;;;;;;;10.10;5.32;;;;;;;18.54;87.24;96435.94;5013941;28;20053;-78
2021/07/07 08:43:05;;;;;;;8.27;5.00;;;;;;;18.59;86.74;96437.59;5013050;28;20046;-78
2021/07/07 08:45:32;;;;;;;9.18;5.13;;;;;;;18.60;85.79;96450.22;5013605;28;20046;-77
2021/07/07 08:48:00;;;;;;;7.20;4.90;;;;;;;18.60;86.04;96441.94;5012216;28;20069;-79
2021/07/07 08:50:28;;;;;;;12.10;5.38;;;;;;;18.59;86.39;96451.38;5013485;28;20049;-76
2021/07/07 08:52:57;;;;;;;8.98;5.40;;;;;;;18.60;86.70;96433.66;5013134;28;20519;-76
2021/07/07 08:55:24;;;;;;;7.53;5.10;;;;;;;18.61;86.97;96430.53;5013156;28;20046;-76
2021/07/07 08:57:52;;;;;;;10.98;5.05;;;;;;;18.65;87.21;96433.34;5013322;28;20057;-77
2021/07/07 09:00:22;;;;;;;10.65;5.53;;;;;;;18.67;87.28;96431.81;5012612;28;20049;-74
2021/07/07 09:02:51;;;;;;;11.10;5.95;;;;;;;18.69;87.56;96435.03;5013209;28;20532;-75
2021/07/07 09:05:20;;;;;;;10.55;5.57;;;;;;;18.75;87.98;96438.28;5012936;28;20050;-76
2021/07/07 09:07:47;;;;;;;10.38;5.95;;;;;;;18.81;87.39;96447.84;5013103;28;20060;-76
2021/07/07 09:10:18;;;;;;;10.07;6.13;;;;;;;18.87;87.60;96456.59;5012665;28;20049;-75
2021/07/07 09:12:45;;;;;;;14.77;6.63;;;;;;;18.93;88.17;96455.91;5012925;28;20061;-75
2021/07/07 09:15:14;;;;;;;11.70;6.70;;;;;;;19.01;88.54;96460.38;5012461;28;20052;-75
2021/07/07 09:17:42;;;;;;;12.20;5.30;;;;;;;19.11;88.58;96467.25;5012986;28;20046;-75
2021/07/07 09:20:17;;;;;;;10.05;5.85;;;;;;;19.19;88.48;96470.91;5012191;28;20046;-76
2021/07/07 09:22:45;;;;;;;9.55;5.97;;;;;;;19.24;86.84;96465.06;5012977;28;20120;-75
2021/07/07 09:25:14;;;;;;;8.32;5.28;;;;;;;19.28;86.01;96463.16;5012000;28;20049;-75
2021/07/07 09:27:41;;;;;;;12.85;5.03;;;;;;;19.27;85.48;96470.66;5030131;28;20041;-75
2021/07/07 09:30:10;;;;;;;6.13;4.80;;;;;;;19.29;85.67;96470.28;5016059;28;20053;-76
2021/07/07 09:32:47;;;;;;;6.00;4.88;;;;;;;19.32;86.19;96468.75;5012729;28;20507;-75
2021/07/07 09:35:14;;;;;;;11.07;5.30;;;;;;;19.38;86.37;96468.03;5012155;28;20050;-76
2021/07/07 09:37:50;;;;;;;9.02;4.68;;;;;;;19.45;86.39;96468.13;5012704;28;20049;-77
2021/07/07 09:40:18;;;;;;;7.75;4.13;;;;;;;19.51;86.25;96472.16;5011737;28;20045;-78
2021/07/07 09:42:46;;;;;;;9.68;4.68;;;;;;;19.53;86.13;96469.84;5012605;28;20080;-74
2021/07/07 09:45:16;;;;;;;7.45;4.72;;;;;;;19.59;85.99;96473.09;5011861;28;20042;-77
2021/07/07 09:47:43;;;;;;;10.43;5.07;;;;;;;19.65;86.48;96470.81;5012564;28;20073;-77
2021/07/07 09:50:11;;;;;;;10.32;5.10;;;;;;;19.72;86.29;96476.41;5011592;28;20053;-76
2021/07/07 09:52:38;;;;;;;9.70;3.70;;;;;;;19.73;84.64;96480.78;5012423;28;20050;-76
2021/07/07 09:55:08;;;;;;;8.38;3.63;;;;;;;19.84;84.33;96483.69;5011741;28;20046;-77
2021/07/07 09:57:44;;;;;;;6.55;3.45;;;;;;;19.92;83.95;96490.91;5012479;28;20050;-78
2021/07/07 10:00:12;;;;;;;3.92;2.45;;;;;;;20.01;83.04;96494.19;5011312;28;20133;-77
2021/07/07 10:02:40;;;;;;;9.98;4.00;;;;;;;20.15;83.38;96493.53;5012375;28;20041;-76
2021/07/07 10:05:09;;;;;;;4.25;2.60;;;;;;;20.24;84.42;96491.28;5011546;28;20050;-74
2021/07/07 10:07:35;;;;;;;6.10;2.42;;;;;;;20.37;82.92;96500.94;5012298;28;20081;-77
2021/07/07 10:10:02;;;;;;;5.35;2.25;;;;;;;20.49;82.62;96497.13;5011440;28;20050;-76
2021/07/07 10:12:31;;;;;;;5.30;2.90;;;;;;;20.62;82.18;96489.34;5012144;28;20057;-74
2021/07/07 10:14:58;;;;;;;3.78;2.25;;;;;;;20.56;78.89;96486.91;5011869;28;20073;-76
2021/07/07 10:17:24;;;;;;;6.88;2.20;;;;;;;20.63;79.99;96485.44;5011834;28;20046;-77
2021/07/07 10:19:51;;;;;;;5.45;2.03;;;;;;;20.69;80.69;96494.97;5011390;28;20049;-74
2021/07/07 10:22:18;;;;;;;3.72;2.50;;;;;;;20.77;80.10;96491.09;5011623;28;20046;-74
2021/07/07 10:24:45;;;;;;;4.50;2.35;;;;;;;20.80;79.00;96490.34;5011661;28;20519;-73
2021/07/07 10:27:12;;;;;;;3.70;2.50;;;;;;;20.86;79.49;96505.41;5011546;28;20046;-74
2021/07/07 10:29:42;;;;;;;3.70;2.22;;;;;;;20.94;78.96;96495.22;5011511;28;20042;-74
2021/07/07 10:32:09;;;;;;;4.78;1.90;;;;;;;21.00;75.63;96488.94;5011080;28;20061;-75
2021/07/07 10:34:38;;;;;;;3.50;1.73;;;;;;;20.97;73.70;96484.16;5011656;28;20041;-76
2021/07/07 10:37:04;;;;;;;5.07;2.10;;;;;;;20.97;74.86;96489.69;5011382;28;20057;-76
2021/07/07 10:39:32;;;;;;;4.10;1.80;;;;;;;21.09;74.92;96492.19;5011284;28;20048;-74
2021/07/07 10:42:02;;;;;;;4.72;2.05;;;;;;;21.26;76.08;96501.81;5011553;28;20053;-75
2021/07/07 10:44:52;;;;;;;3.58;1.35;;;;;;;21.39;73.46;96488.47;5011446;28;20133;-76
2021/07/07 10:47:33;;;;;;;3.28;2.08;;;;;;;21.52;75.18;96488.97;5011042;28;20092;-76
2021/07/07 10:50:00;;;;;;;3.22;1.92;;;;;;;21.53;75.95;96483.03;5011405;28;20081;-75
2021/07/07 10:52:35;;;;;;;4.10;1.77;;;;;;;21.49;75.34;96482.19;5011245;28;20092;-76
2021/07/07 10:55:04;;;;;;;2.97;1.52;;;;;;;21.49;74.30;96492.50;5010800;28;20057;-74
2021/07/07 10:57:36;;;;;;;2.58;1.42;;;;;;;21.48;72.26;96491.69;5011292;28;20038;-76
2021/07/07 11:00:06;;;;;;;3.10;1.60;;;;;;;21.51;71.53;96488.16;5010859;28;20078;-76
2021/07/07 11:02:33;;;;;;;2.22;1.30;;;;;;;21.57;75.61;96489.38;5011365;28;20400;-76
2021/07/07 11:05:02;;;;;;;4.10;1.60;;;;;;;21.61;74.92;96483.84;5011382;28;20049;-77
2021/07/07 11:07:35;;;;;;;3.38;1.70;;;;;;;21.72;74.39;96483.94;5011118;28;20046;-76
2021/07/07 11:10:05;;;;;;;3.47;1.85;;;;;;;21.81;75.59;96492.69;5010663;28;20058;-73
2021/07/07 11:13:14;;;;;;;1.85;1.10;;;;;;;21.95;71.18;96492.75;5010947;28;20050;-75
2021/07/07 11:15:44;;;;;;;4.38;2.03;;;;;;;21.95;71.10;96492.75;5011038;28;20474;-76
2021/07/07 11:18:19;;;;;;;4.50;1.73;;;;;;;21.98;68.70;96491.16;5010693;28;20049;-77
2021/07/07 11:20:58;;;;;;;3.53;1.48;;;;;;;21.99;71.46;96488.03;5010896;28;20046;-76
2021/07/07 11:23:26;;;;;;;3.38;1.20;;;;;;;21.90;69.17;96484.81;5010887;28;20042;-76
2021/07/07 11:25:53;;;;;;;4.13;1.17;;;;;;;22.02;71.80;96478.91;5010852;28;20046;-76
2021/07/07 11:28:21;;;;;;;3.03;1.35;;;;;;;22.12;66.57;96480.19;5010640;28;20046;-76
2021/07/07 11:30:49;;;;;;;3.78;1.77;;;;;;;22.19;70.42;96476.66;5010682;28;20050;-76
2021/07/07 11:33:16;;;;;;;3.70;1.48;;;;;;;22.16;66.77;96471.88;5019787;28;20057;-76
2021/07/07 11:35:43;;;;;;;2.72;1.50;;;;;;;22.19;68.54;96473.88;5029926;28;20529;-77
2021/07/07 11:38:13;;;;;;;5.55;2.03;;;;;;;22.22;69.42;96471.09;5029885;28;20133;-76